createdAt,value
2017-10-23T00:01:27.107Z,94.00
2017-10-23T00:04:29.176Z,94.20
2017-10-23T00:07:31.106Z,94.10
2017-10-23T00:10:33.084Z,94.00
2017-10-23T00:13:35.092Z,93.90
2017-10-23T00:16:37.897Z,93.60
2017-10-23T00:19:40.735Z,93.50
2017-10-23T00:22:42.723Z,93.50
2017-10-23T00:25:44.701Z,93.30
2017-10-23T00:28:46.765Z,93.30
2017-10-23T00:31:49.465Z,93.30
2017-10-23T00:34:52.222Z,93.40
2017-10-23T00:37:54.150Z,93.40
2017-10-23T00:40:58.437Z,93.50
2017-10-23T00:44:00.358Z,93.50
2017-10-23T00:47:03.204Z,93.90
2017-10-23T00:50:05.154Z,93.90
2017-10-23T00:53:07.902Z,93.90
2017-10-23T00:56:09.855Z,93.90
2017-10-23T00:59:12.135Z,94.10
2017-10-23T01:02:14.084Z,94.20
2017-10-23T01:05:16.085Z,94.20
2017-10-23T01:08:18.815Z,94.40
2017-10-23T01:11:21.105Z,94.40
2017-10-23T01:14:23.043Z,94.40
2017-10-23T01:17:25.010Z,94.40
2017-10-23T01:20:27.121Z,94.30
2017-10-23T01:23:29.983Z,94.30
2017-10-23T01:26:31.940Z,94.30
2017-10-23T01:29:33.913Z,94.30
2017-10-23T01:32:35.881Z,94.40
2017-10-23T01:35:38.665Z,94.20
2017-10-23T01:38:40.593Z,94.20
2017-10-23T01:41:42.549Z,94.10
2017-10-23T01:44:45.258Z,94.20
2017-10-23T01:47:47.243Z,94.20
2017-10-23T01:50:49.230Z,93.70
2017-10-23T01:53:51.414Z,93.60
2017-10-23T01:56:53.388Z,93.70
2017-10-23T01:59:56.333Z,93.70
2017-10-23T02:02:58.304Z,93.70
2017-10-23T02:06:00.322Z,93.80
2017-10-23T02:09:02.264Z,94.40
2017-10-23T02:12:04.665Z,94.60
2017-10-23T02:15:06.605Z,94.70
2017-10-23T02:18:09.725Z,95.30
2017-10-23T02:21:12.408Z,95.10
2017-10-23T02:24:14.530Z,95.10
2017-10-23T02:27:16.471Z,95.30
2017-10-23T02:30:18.809Z,95.50
2017-10-23T02:33:20.782Z,95.60
2017-10-23T02:36:23.584Z,95.80
2017-10-23T02:39:25.505Z,95.80
2017-10-23T02:42:27.526Z,95.80
2017-10-23T02:45:29.458Z,95.90
2017-10-23T02:48:31.506Z,95.90
2017-10-23T02:51:34.209Z,95.90
2017-10-23T02:54:36.234Z,95.90
2017-10-23T02:57:38.371Z,95.90
2017-10-23T03:00:40.833Z,95.90
2017-10-23T03:03:42.864Z,95.90
2017-10-23T03:06:45.569Z,95.90
2017-10-23T03:09:49.125Z,95.80
2017-10-23T03:12:51.449Z,95.80
2017-10-23T03:15:53.457Z,95.20
2017-10-23T03:18:56.170Z,95.80
2017-10-23T03:21:58.107Z,95.80
2017-10-23T03:25:00.059Z,95.90
2017-10-23T03:28:02.017Z,96.00
2017-10-23T03:31:04.397Z,96.10
2017-10-23T03:34:06.338Z,96.20
2017-10-23T03:37:08.309Z,96.60
2017-10-23T03:40:10.233Z,96.30
2017-10-23T03:43:12.967Z,96.50
2017-10-23T03:46:14.894Z,96.50
2017-10-23T03:49:17.009Z,96.00
2017-10-23T03:52:19.735Z,96.00
2017-10-23T03:55:21.710Z,96.00
2017-10-23T03:58:23.690Z,96.00
2017-10-23T04:01:25.638Z,96.10
2017-10-23T04:04:27.707Z,96.00
2017-10-23T04:07:29.685Z,96.20
2017-10-23T04:10:31.620Z,96.00
2017-10-23T04:13:33.594Z,96.10
2017-10-23T04:16:35.554Z,96.00
2017-10-23T04:19:37.963Z,96.00
2017-10-23T04:22:39.919Z,96.00
2017-10-23T04:25:42.218Z,95.90
2017-10-23T04:28:44.165Z,95.90
2017-10-23T04:31:46.126Z,95.90
2017-10-23T04:34:48.072Z,95.90
2017-10-23T04:37:50.820Z,95.70
2017-10-23T04:40:52.761Z,95.70
2017-10-23T04:43:55.597Z,95.80
2017-10-23T04:46:57.542Z,95.80
2017-10-23T04:50:00.285Z,95.70
2017-10-23T04:53:02.241Z,95.70
2017-10-23T04:56:04.214Z,95.70
2017-10-23T04:59:06.905Z,95.70
2017-10-23T05:02:10.031Z,95.70
2017-10-23T05:05:11.978Z,95.70
2017-10-23T05:08:14.305Z,95.70
2017-10-23T05:11:17.034Z,95.80
2017-10-23T05:14:19.011Z,95.80
2017-10-23T05:17:20.930Z,95.80
2017-10-23T05:20:22.898Z,95.70
2017-10-23T05:23:25.367Z,95.70
2017-10-23T05:26:27.348Z,95.70
2017-10-23T05:29:29.373Z,95.60
2017-10-23T05:32:31.342Z,95.50
2017-10-23T05:35:33.280Z,95.50
2017-10-23T05:38:36.095Z,95.60
2017-10-23T05:41:38.012Z,95.30
2017-10-23T05:44:39.959Z,95.30
2017-10-23T05:47:41.880Z,95.30
2017-10-23T05:50:43.875Z,95.30
2017-10-23T05:53:45.946Z,95.20
2017-10-23T05:56:47.922Z,95.20
2017-10-23T05:59:49.854Z,95.10
2017-10-23T06:02:52.681Z,95.10
2017-10-23T06:05:54.629Z,95.10
2017-10-23T06:08:56.938Z,95.10
2017-10-23T06:11:59.637Z,95.10
2017-10-23T06:15:02.349Z,95.00
2017-10-23T06:18:04.289Z,95.00
2017-10-23T06:21:06.694Z,95.00
2017-10-23T06:24:08.656Z,95.00
2017-10-23T06:27:10.622Z,94.80
2017-10-23T06:30:12.672Z,94.80
2017-10-23T06:33:14.654Z,94.70
2017-10-23T06:36:16.606Z,94.70
2017-10-23T06:39:19.353Z,94.60
2017-10-23T06:42:21.285Z,94.60
2017-10-23T06:45:23.231Z,94.60
2017-10-23T06:48:25.155Z,94.60
2017-10-23T06:51:27.128Z,94.60
2017-10-23T06:54:29.063Z,94.50
2017-10-23T06:57:31.231Z,94.60
2017-10-23T07:00:33.216Z,94.60
2017-10-23T07:03:35.600Z,94.60
2017-10-23T07:06:37.533Z,94.40
2017-10-23T07:09:39.862Z,94.40
2017-10-23T07:12:43.309Z,94.60
2017-10-23T07:15:45.447Z,94.50
2017-10-23T07:18:47.368Z,94.40
2017-10-23T07:21:49.344Z,94.20
2017-10-23T07:24:52.038Z,94.10
2017-10-23T07:27:54.852Z,94.10
2017-10-23T07:30:56.827Z,94.10
2017-10-23T07:33:59.613Z,94.00
2017-10-23T07:37:01.541Z,94.00
2017-10-23T07:40:03.503Z,93.90
2017-10-23T07:43:05.449Z,93.90
2017-10-23T07:46:07.436Z,93.90
2017-10-23T07:49:10.904Z,93.80
2017-10-23T07:52:13.351Z,93.70
2017-10-23T07:55:15.298Z,93.70
2017-10-23T07:58:17.318Z,93.80
2017-10-23T08:01:20.773Z,93.80
2017-10-23T08:04:22.745Z,93.80
2017-10-23T08:07:24.720Z,93.70
2017-10-23T08:10:27.531Z,93.80
2017-10-23T08:13:29.505Z,93.50
2017-10-23T08:16:32.317Z,93.50
2017-10-23T08:19:34.269Z,93.60
2017-10-23T08:22:36.239Z,93.70
2017-10-23T08:25:38.370Z,93.80
2017-10-23T08:28:40.651Z,94.00
2017-10-23T08:31:42.612Z,93.40
2017-10-23T08:34:44.926Z,93.60
2017-10-23T08:37:47.706Z,93.60
2017-10-23T08:40:49.747Z,93.60
2017-10-23T08:43:51.803Z,93.70
2017-10-23T08:46:54.001Z,93.70
2017-10-23T08:49:55.958Z,93.50
2017-10-23T08:52:58.748Z,93.60
2017-10-23T08:56:00.825Z,93.60
2017-10-23T08:59:02.807Z,93.80
2017-10-23T09:02:04.762Z,93.60
2017-10-23T09:05:07.098Z,93.50
2017-10-23T09:08:09.810Z,93.00
2017-10-23T09:11:12.622Z,92.40
2017-10-23T09:14:14.586Z,92.40
2017-10-23T09:17:17.678Z,92.10
2017-10-23T09:20:19.694Z,91.90
2017-10-23T09:23:21.796Z,91.70
2017-10-23T09:26:23.736Z,91.00
2017-10-23T09:29:25.745Z,90.80
2017-10-23T09:32:28.436Z,90.60
2017-10-23T09:35:31.185Z,90.80
2017-10-23T09:38:33.107Z,90.80
2017-10-23T09:41:35.045Z,90.70
2017-10-23T09:44:36.968Z,90.20
2017-10-23T09:47:39.384Z,90.30
2017-10-23T09:50:41.562Z,90.20
2017-10-23T09:53:44.353Z,89.10
2017-10-23T09:56:46.330Z,89.10
2017-10-23T09:59:48.530Z,89.80
2017-10-23T10:02:51.712Z,89.80
2017-10-23T10:05:54.011Z,90.60
2017-10-23T10:08:56.029Z,91.10
2017-10-23T10:11:58.264Z,91.70
2017-10-23T10:15:00.276Z,92.30
2017-10-23T10:18:02.274Z,92.80
2017-10-23T10:21:04.242Z,93.10
2017-10-23T10:24:06.255Z,93.60
2017-10-23T10:27:08.198Z,93.70
2017-10-23T10:30:10.531Z,93.90
2017-10-23T10:33:12.520Z,94.00
2017-10-23T10:36:14.893Z,94.20
2017-10-23T10:39:17.600Z,94.40
2017-10-23T10:42:20.714Z,94.40
2017-10-23T10:45:22.669Z,94.30
2017-10-23T10:48:25.301Z,94.40
2017-10-23T10:51:27.441Z,94.40
2017-10-23T10:54:29.755Z,94.40
2017-10-23T10:57:32.573Z,94.30
2017-10-23T11:00:35.391Z,94.40
2017-10-23T11:03:37.341Z,94.40
2017-10-23T11:06:39.658Z,94.60
2017-10-23T11:09:41.640Z,94.90
2017-10-23T11:12:44.002Z,94.60
2017-10-23T11:15:45.929Z,95.00
2017-10-23T11:18:48.214Z,94.80
2017-10-23T11:21:50.155Z,94.70
2017-10-23T11:24:52.481Z,94.60
2017-10-23T11:27:54.427Z,94.80
2017-10-23T11:30:56.936Z,94.80
2017-10-23T11:33:59.758Z,95.20
2017-10-23T11:37:01.757Z,94.90
2017-10-23T11:40:03.815Z,94.80
2017-10-23T11:43:06.594Z,95.10
2017-10-23T11:46:09.436Z,95.40
2017-10-23T11:49:11.841Z,95.10
2017-10-23T11:52:13.901Z,95.10
2017-10-23T11:55:15.870Z,95.20
2017-10-23T11:58:17.802Z,95.20
2017-10-23T12:01:20.074Z,95.40
2017-10-23T12:04:22.032Z,95.60
2017-10-23T12:07:24.797Z,95.80
2017-10-23T12:10:26.754Z,95.80
2017-10-23T12:13:29.109Z,95.90
2017-10-23T12:16:31.803Z,96.00
2017-10-23T12:19:34.088Z,96.00
2017-10-23T12:22:36.901Z,96.10
2017-10-23T12:25:39.705Z,96.20
2017-10-23T12:28:42.496Z,96.20
2017-10-23T12:31:45.957Z,96.20
2017-10-23T12:34:47.893Z,96.20
2017-10-23T12:37:49.882Z,96.20
2017-10-23T12:40:52.594Z,96.30
2017-10-23T12:43:55.476Z,96.20
2017-10-23T12:46:57.405Z,96.20
2017-10-23T12:49:59.536Z,96.20
2017-10-23T12:53:01.526Z,96.30
2017-10-23T12:56:03.922Z,96.40
2017-10-23T12:59:05.902Z,96.50
2017-10-23T13:02:07.886Z,96.40
2017-10-23T13:05:09.983Z,96.50
2017-10-23T13:08:11.973Z,96.60
2017-10-23T13:11:14.797Z,96.60
2017-10-23T13:14:16.916Z,96.60
2017-10-23T13:17:35.499Z,96.60
2017-10-23T13:20:37.494Z,96.50
2017-10-23T13:23:39.442Z,96.60
2017-10-23T13:26:41.772Z,96.60
2017-10-23T13:29:43.790Z,96.70
2017-10-23T13:32:46.873Z,96.50
2017-10-23T13:35:48.857Z,96.70
2017-10-23T13:38:51.151Z,96.80
2017-10-23T13:41:53.550Z,96.80
2017-10-23T13:44:55.533Z,96.80
2017-10-23T13:47:57.434Z,96.80
2017-10-23T13:51:00.196Z,96.80
2017-10-23T13:54:02.198Z,96.80
2017-10-23T13:57:04.291Z,96.80
2017-10-23T14:00:07.002Z,96.90
2017-10-23T14:03:10.179Z,96.90
2017-10-23T14:06:12.092Z,96.90
2017-10-23T14:09:15.200Z,97.30
2017-10-23T14:12:17.129Z,97.00
2017-10-23T14:15:19.454Z,96.70
2017-10-23T14:18:21.378Z,97.00
2017-10-23T14:21:23.299Z,96.90
2017-10-23T14:24:25.223Z,96.90
2017-10-23T14:27:28.269Z,96.80
2017-10-23T14:30:30.186Z,96.80
2017-10-23T14:33:32.481Z,96.90
2017-10-23T14:36:34.798Z,97.00
2017-10-23T14:39:37.859Z,97.10
2017-10-23T14:42:39.759Z,97.10
2017-10-23T14:45:42.450Z,97.10
2017-10-23T14:48:44.417Z,97.10
2017-10-23T14:51:46.346Z,97.10
2017-10-23T14:54:49.033Z,97.20
2017-10-23T14:57:50.946Z,97.20
2017-10-23T15:00:52.872Z,97.20
2017-10-23T15:03:55.186Z,97.20
2017-10-23T15:06:58.631Z,97.30
2017-10-23T15:10:00.794Z,97.30
2017-10-23T15:13:02.717Z,97.30
2017-10-23T15:16:05.070Z,97.40
2017-10-23T15:19:06.993Z,97.40
2017-10-23T15:22:09.318Z,97.50
2017-10-23T15:25:11.234Z,97.50
2017-10-23T15:28:14.342Z,97.50
2017-10-23T15:31:17.225Z,97.50
2017-10-23T15:34:19.538Z,97.50
2017-10-23T15:37:22.301Z,97.40
2017-10-23T15:40:24.312Z,97.40
2017-10-23T15:43:26.264Z,97.20
2017-10-23T15:46:28.185Z,97.10
2017-10-23T15:49:30.862Z,97.00
2017-10-23T15:52:32.801Z,97.00
2017-10-23T15:55:34.718Z,96.90
2017-10-23T15:58:37.027Z,96.90
2017-10-23T16:01:38.955Z,96.90
2017-10-23T16:04:41.322Z,97.10
2017-10-23T16:07:44.081Z,96.80
2017-10-23T16:10:45.996Z,96.80
2017-10-23T16:13:48.658Z,96.90
2017-10-23T16:16:50.884Z,96.90
2017-10-23T16:19:53.643Z,97.00
2017-10-23T16:22:55.627Z,97.00
2017-10-23T16:25:57.666Z,97.00
2017-10-23T16:29:00.021Z,97.00
2017-10-23T16:32:01.981Z,97.00
2017-10-23T16:35:04.501Z,97.00
2017-10-23T16:38:06.415Z,97.00
2017-10-23T16:41:08.756Z,97.00
2017-10-23T16:44:10.680Z,97.00
2017-10-23T16:47:13.389Z,97.00
2017-10-23T16:50:15.370Z,97.00
2017-10-23T16:53:17.336Z,96.90
2017-10-23T16:56:20.134Z,97.00
2017-10-23T16:59:22.850Z,97.00
2017-10-23T17:02:25.556Z,96.90
2017-10-23T17:05:28.255Z,96.90
2017-10-23T17:08:30.915Z,96.90
2017-10-23T17:11:33.646Z,96.90
2017-10-23T17:14:36.318Z,97.00
2017-10-23T17:17:38.286Z,96.90
2017-10-23T17:20:40.316Z,96.90
2017-10-23T17:23:43.804Z,97.00
2017-10-23T17:26:45.778Z,97.00
2017-10-23T17:29:47.894Z,96.90
2017-10-23T17:32:50.671Z,96.90
2017-10-23T17:35:52.641Z,96.90
2017-10-23T17:38:54.559Z,96.80
2017-10-23T17:41:56.526Z,96.80
2017-10-23T17:44:58.534Z,96.80
2017-10-23T17:48:01.629Z,96.80
2017-10-23T17:51:03.591Z,96.80
2017-10-23T17:54:06.732Z,97.00
2017-10-23T17:57:09.538Z,96.70
2017-10-23T18:00:12.252Z,96.70
2017-10-23T18:03:14.217Z,96.70
2017-10-23T18:06:16.206Z,96.60
2017-10-23T18:09:18.950Z,96.60
2017-10-23T18:12:21.043Z,96.60
2017-10-23T18:15:23.287Z,96.60
2017-10-23T18:18:26.352Z,96.50
2017-10-23T18:21:28.375Z,96.50
2017-10-23T18:24:31.374Z,96.50
2017-10-23T18:27:33.282Z,96.60
2017-10-23T18:30:35.997Z,96.50
2017-10-23T18:33:37.936Z,96.80
2017-10-23T18:36:40.755Z,96.50
2017-10-23T18:39:42.749Z,96.50
2017-10-23T18:42:45.637Z,96.50
2017-10-23T18:45:47.622Z,96.50
2017-10-23T18:48:49.576Z,96.50
2017-10-23T18:51:51.499Z,96.50
2017-10-23T18:54:54.574Z,96.50
2017-10-23T18:57:56.567Z,96.60
2017-10-23T19:00:58.590Z,96.50
2017-10-23T19:04:01.363Z,96.60
2017-10-23T19:07:03.318Z,96.60
2017-10-23T19:10:05.280Z,96.60
2017-10-23T19:13:07.315Z,96.60
2017-10-23T19:16:09.335Z,96.60
2017-10-23T19:19:11.276Z,96.60
2017-10-23T19:22:13.278Z,96.50
2017-10-23T19:25:15.556Z,96.40
2017-10-23T19:28:17.448Z,96.40
2017-10-23T19:31:19.514Z,96.30
2017-10-23T19:34:21.446Z,96.20
2017-10-23T19:37:23.815Z,96.20
2017-10-23T19:40:26.520Z,96.20
2017-10-23T19:43:30.385Z,96.20
2017-10-23T19:46:32.331Z,96.20
2017-10-23T19:49:35.534Z,96.10
2017-10-23T19:52:37.505Z,96.10
2017-10-23T19:55:39.877Z,96.10
2017-10-23T19:58:41.890Z,96.10
2017-10-23T20:01:43.858Z,96.10
2017-10-23T20:04:45.957Z,96.10
2017-10-23T20:07:49.781Z,96.10
2017-10-23T20:10:51.702Z,96.10
2017-10-23T20:13:54.051Z,96.00
2017-10-23T20:16:55.942Z,96.10
2017-10-23T20:19:58.201Z,96.00
2017-10-23T20:23:00.246Z,95.80
2017-10-23T20:26:02.302Z,95.80
2017-10-23T20:29:04.507Z,95.80
2017-10-23T20:32:07.507Z,95.80
2017-10-23T20:35:10.288Z,95.80
2017-10-23T20:38:13.106Z,95.70
2017-10-23T20:41:15.915Z,95.70
2017-10-23T20:44:18.842Z,95.70
2017-10-23T20:47:20.764Z,95.70
2017-10-23T20:50:22.750Z,95.70
2017-10-23T20:53:24.737Z,95.80
2017-10-23T20:56:26.726Z,95.80
2017-10-23T20:59:28.714Z,95.80
2017-10-23T21:02:30.624Z,95.90
2017-10-23T21:05:33.386Z,95.90
2017-10-23T21:08:35.418Z,95.90
2017-10-23T21:11:38.195Z,95.90
2017-10-23T21:14:40.185Z,95.90
2017-10-23T21:17:42.159Z,96.00
2017-10-23T21:20:44.940Z,95.90
2017-10-23T21:23:46.858Z,95.90
2017-10-23T21:26:49.809Z,95.90
2017-10-23T21:29:51.815Z,95.80
2017-10-23T21:32:54.091Z,95.80
2017-10-23T21:35:56.079Z,95.80
2017-10-23T21:38:58.408Z,95.80
2017-10-23T21:42:01.091Z,95.80
2017-10-23T21:45:04.212Z,95.80
2017-10-23T21:48:08.988Z,95.90
2017-10-23T21:51:11.356Z,95.80
2017-10-23T21:54:13.445Z,95.80
2017-10-23T21:57:15.940Z,95.80
2017-10-23T22:00:18.610Z,95.90
2017-10-23T22:03:20.829Z,95.90
2017-10-23T22:06:23.117Z,95.90
2017-10-23T22:09:25.375Z,95.80
2017-10-23T22:12:27.318Z,95.80
2017-10-23T22:15:29.645Z,95.80
2017-10-23T22:18:31.567Z,95.80
2017-10-23T22:21:34.651Z,95.80
2017-10-23T22:24:36.623Z,95.80
2017-10-23T22:27:38.904Z,95.90
2017-10-23T22:30:40.919Z,95.90
2017-10-23T22:33:43.320Z,95.90
2017-10-23T22:36:46.007Z,95.90
2017-10-23T22:39:48.273Z,95.90
2017-10-23T22:42:50.177Z,95.90
2017-10-23T22:45:53.269Z,95.90
2017-10-23T22:48:55.303Z,96.00
2017-10-23T22:51:57.672Z,96.00
2017-10-23T22:55:00.334Z,96.40
2017-10-23T22:58:02.638Z,96.10
2017-10-23T23:01:04.573Z,96.10
2017-10-23T23:04:06.908Z,96.10
2017-10-23T23:07:08.913Z,96.10
2017-10-23T23:10:11.186Z,96.20
2017-10-23T23:13:13.177Z,96.20
2017-10-23T23:16:15.423Z,96.30
2017-10-23T23:19:17.314Z,96.30
2017-10-23T23:22:19.634Z,96.30
2017-10-23T23:25:21.639Z,96.30
2017-10-23T23:28:24.749Z,96.30
2017-10-23T23:31:27.756Z,96.30
2017-10-23T23:34:30.841Z,96.30
2017-10-23T23:37:32.810Z,96.30
2017-10-23T23:40:35.130Z,96.30
2017-10-23T23:43:37.104Z,96.30
2017-10-23T23:46:39.340Z,96.20
2017-10-23T23:49:41.282Z,96.20
2017-10-23T23:52:43.789Z,96.20
2017-10-23T23:55:45.689Z,96.10
2017-10-23T23:58:48.770Z,96.10
